sensor_id;sensor_type;location;lat;lon;timestamp;P1;durP1;ratioP1;P2;durP2;ratioP2
8359;SDS011;4217;48.762;11.428;2022-10-30T00:09:17;11.87;;;10.87;;
8359;SDS011;4217;48.762;11.428;2022-10-30T00:19:18;11.93;;;11.00;;
8359;SDS011;4217;48.762;11.428;2022-10-30T00:29:20;12.33;;;11.10;;
8359;SDS011;4217;48.762;11.428;2022-10-30T00:39:25;12.57;;;11.47;;
8359;SDS011;4217;48.762;11.428;2022-10-30T00:49:26;14.70;;;13.40;;
8359;SDS011;4217;48.762;11.428;2022-10-30T00:59:29;14.47;;;13.23;;
8359;SDS011;4217;48.762;11.428;2022-10-30T01:09:34;15.37;;;14.07;;
8359;SDS011;4217;48.762;11.428;2022-10-30T01:30:24;14.90;;;13.37;;
8359;SDS011;4217;48.762;11.428;2022-10-30T01:40:54;13.93;;;12.83;;
8359;SDS011;4217;48.762;11.428;2022-10-30T01:50:59;15.30;;;14.00;;
8359;SDS011;4217;48.762;11.428;2022-10-30T02:01:12;13.80;;;12.80;;
8359;SDS011;4217;48.762;11.428;2022-10-30T02:11:16;15.17;;;13.67;;
8359;SDS011;4217;48.762;11.428;2022-10-30T02:21:18;11.73;;;10.73;;
8359;SDS011;4217;48.762;11.428;2022-10-30T02:31:20;13.23;;;11.97;;
8359;SDS011;4217;48.762;11.428;2022-10-30T02:41:22;13.67;;;12.40;;
8359;SDS011;4217;48.762;11.428;2022-10-30T02:51:23;12.00;;;10.90;;
8359;SDS011;4217;48.762;11.428;2022-10-30T03:01:25;13.43;;;12.40;;
8359;SDS011;4217;48.762;11.428;2022-10-30T03:11:30;12.83;;;11.47;;
8359;SDS011;4217;48.762;11.428;2022-10-30T03:21:34;16.53;;;15.13;;
8359;SDS011;4217;48.762;11.428;2022-10-30T03:31:35;13.03;;;11.93;;
8359;SDS011;4217;48.762;11.428;2022-10-30T03:42:06;23.87;;;21.80;;
8359;SDS011;4217;48.762;11.428;2022-10-30T03:52:08;13.57;;;10.17;;
8359;SDS011;4217;48.762;11.428;2022-10-30T04:02:10;19.43;;;15.17;;
8359;SDS011;4217;48.762;11.428;2022-10-30T04:12:13;15.50;;;14.20;;
8359;SDS011;4217;48.762;11.428;2022-10-30T04:22:15;12.47;;;11.37;;
8359;SDS011;4217;48.762;11.428;2022-10-30T04:32:17;10.80;;;9.87;;
8359;SDS011;4217;48.762;11.428;2022-10-30T04:42:19;10.87;;;9.87;;
8359;SDS011;4217;48.762;11.428;2022-10-30T04:52:21;9.63;;;8.97;;
8359;SDS011;4217;48.762;11.428;2022-10-30T05:02:23;7.53;;;7.03;;
8359;SDS011;4217;48.762;11.428;2022-10-30T05:12:26;8.37;;;7.73;;
8359;SDS011;4217;48.762;11.428;2022-10-30T05:22:29;8.47;;;7.83;;
8359;SDS011;4217;48.762;11.428;2022-10-30T05:32:32;7.77;;;7.17;;
8359;SDS011;4217;48.762;11.428;2022-10-30T05:42:34;8.03;;;7.43;;
8359;SDS011;4217;48.762;11.428;2022-10-30T05:52:38;9.73;;;8.93;;
8359;SDS011;4217;48.762;11.428;2022-10-30T06:02:42;8.43;;;7.73;;
8359;SDS011;4217;48.762;11.428;2022-10-30T06:12:50;10.13;;;9.03;;
8359;SDS011;4217;48.762;11.428;2022-10-30T06:23:06;9.73;;;8.93;;
8359;SDS011;4217;48.762;11.428;2022-10-30T06:33:34;9.63;;;8.73;;
8359;SDS011;4217;48.762;11.428;2022-10-30T06:43:36;9.17;;;8.27;;
8359;SDS011;4217;48.762;11.428;2022-10-30T06:53:42;10.63;;;9.73;;
8359;SDS011;4217;48.762;11.428;2022-10-30T07:04:07;8.30;;;7.50;;
8359;SDS011;4217;48.762;11.428;2022-10-30T07:14:09;6.50;;;5.90;;
8359;SDS011;4217;48.762;11.428;2022-10-30T07:24:18;5.27;;;4.83;;
8359;SDS011;4217;48.762;11.428;2022-10-30T07:34:45;8.27;;;5.17;;
8359;SDS011;4217;48.762;11.428;2022-10-30T07:45:09;9.20;;;5.10;;
8359;SDS011;4217;48.762;11.428;2022-10-30T07:55:47;4.50;;;4.10;;
8359;SDS011;4217;48.762;11.428;2022-10-30T08:06:11;4.53;;;4.20;;
8359;SDS011;4217;48.762;11.428;2022-10-30T08:16:13;4.50;;;4.20;;
8359;SDS011;4217;48.762;11.428;2022-10-30T08:26:16;3.60;;;3.40;;
8359;SDS011;4217;48.762;11.428;2022-10-30T08:36:18;3.53;;;3.33;;
8359;SDS011;4217;48.762;11.428;2022-10-30T08:46:20;3.37;;;3.07;;
8359;SDS011;4217;48.762;11.428;2022-10-30T08:56:21;3.95;;;3.75;;
8359;SDS011;4217;48.762;11.428;2022-10-30T09:06:35;3.95;;;3.63;;
8359;SDS011;4217;48.762;11.428;2022-10-30T09:17:01;4.35;;;4.05;;
8359;SDS011;4217;48.762;11.428;2022-10-30T09:27:03;4.57;;;4.20;;
8359;SDS011;4217;48.762;11.428;2022-10-30T09:37:16;4.90;;;4.57;;
8359;SDS011;4217;48.762;11.428;2022-10-30T10:07:44;6.72;;;5.85;;
8359;SDS011;4217;48.762;11.428;2022-10-30T10:18:16;6.85;;;6.30;;
8359;SDS011;4217;48.762;11.428;2022-10-30T10:59:11;7.38;;;5.80;;
8359;SDS011;4217;48.762;11.428;2022-10-30T11:09:17;8.25;;;7.55;;
8359;SDS011;4217;48.762;11.428;2022-10-30T11:19:20;8.95;;;8.25;;
8359;SDS011;4217;48.762;11.428;2022-10-30T11:29:22;10.60;;;9.70;;
8359;SDS011;4217;48.762;11.428;2022-10-30T11:39:34;8.37;;;7.83;;
8359;SDS011;4217;48.762;11.428;2022-10-30T11:49:49;8.47;;;7.67;;
8359;SDS011;4217;48.762;11.428;2022-10-30T12:00:03;8.10;;;7.40;;
8359;SDS011;4217;48.762;11.428;2022-10-30T12:10:24;8.03;;;7.10;;
8359;SDS011;4217;48.762;11.428;2022-10-30T12:20:27;7.23;;;6.57;;
8359;SDS011;4217;48.762;11.428;2022-10-30T12:30:31;8.47;;;7.33;;
8359;SDS011;4217;48.762;11.428;2022-10-30T12:40:40;8.37;;;7.10;;
8359;SDS011;4217;48.762;11.428;2022-10-30T13:52:50;6.83;;;6.23;;
8359;SDS011;4217;48.762;11.428;2022-10-30T14:13:14;10.67;;;8.00;;
8359;SDS011;4217;48.762;11.428;2022-10-30T14:33:59;8.03;;;7.37;;
8359;SDS011;4217;48.762;11.428;2022-10-30T14:43:56;7.90;;;7.13;;
8359;SDS011;4217;48.762;11.428;2022-10-30T15:15:14;9.83;;;8.93;;
8359;SDS011;4217;48.762;11.428;2022-10-30T15:25:19;10.53;;;7.67;;
8359;SDS011;4217;48.762;11.428;2022-10-30T15:35:24;8.97;;;8.07;;
8359;SDS011;4217;48.762;11.428;2022-10-30T15:45:28;8.13;;;7.10;;
8359;SDS011;4217;48.762;11.428;2022-10-30T15:55:34;11.47;;;7.97;;
8359;SDS011;4217;48.762;11.428;2022-10-30T16:05:35;14.03;;;10.80;;
8359;SDS011;4217;48.762;11.428;2022-10-30T16:15:37;10.77;;;9.77;;
8359;SDS011;4217;48.762;11.428;2022-10-30T16:25:40;12.57;;;11.50;;
8359;SDS011;4217;48.762;11.428;2022-10-30T16:35:47;11.23;;;10.17;;
8359;SDS011;4217;48.762;11.428;2022-10-30T16:56:29;14.50;;;13.40;;
8359;SDS011;4217;48.762;11.428;2022-10-30T17:16:41;13.53;;;12.10;;
8359;SDS011;4217;48.762;11.428;2022-10-30T17:26:54;15.50;;;13.77;;
8359;SDS011;4217;48.762;11.428;2022-10-30T17:36:57;12.03;;;10.93;;
8359;SDS011;4217;48.762;11.428;2022-10-30T17:47:00;11.90;;;10.70;;
8359;SDS011;4217;48.762;11.428;2022-10-30T17:57:14;12.77;;;11.47;;
8359;SDS011;4217;48.762;11.428;2022-10-30T18:07:16;13.40;;;12.00;;
8359;SDS011;4217;48.762;11.428;2022-10-30T18:17:18;13.83;;;12.67;;
8359;SDS011;4217;48.762;11.428;2022-10-30T18:27:19;14.60;;;13.30;;
8359;SDS011;4217;48.762;11.428;2022-10-30T18:37:21;15.90;;;14.57;;
8359;SDS011;4217;48.762;11.428;2022-10-30T18:47:22;17.20;;;15.70;;
8359;SDS011;4217;48.762;11.428;2022-10-30T18:57:24;16.10;;;14.60;;
8359;SDS011;4217;48.762;11.428;2022-10-30T19:07:25;15.60;;;14.30;;
8359;SDS011;4217;48.762;11.428;2022-10-30T19:17:27;17.33;;;15.83;;
8359;SDS011;4217;48.762;11.428;2022-10-30T19:27:31;19.57;;;18.07;;
8359;SDS011;4217;48.762;11.428;2022-10-30T19:37:32;23.10;;;21.20;;
8359;SDS011;4217;48.762;11.428;2022-10-30T19:47:34;21.53;;;19.67;;
8359;SDS011;4217;48.762;11.428;2022-10-30T19:57:36;26.17;;;24.00;;
8359;SDS011;4217;48.762;11.428;2022-10-30T20:07:38;24.77;;;22.87;;
8359;SDS011;4217;48.762;11.428;2022-10-30T20:17:40;27.97;;;25.97;;
8359;SDS011;4217;48.762;11.428;2022-10-30T20:27:42;26.67;;;24.50;;
8359;SDS011;4217;48.762;11.428;2022-10-30T20:37:55;26.87;;;24.33;;
8359;SDS011;4217;48.762;11.428;2022-10-30T20:47:59;26.40;;;24.00;;
8359;SDS011;4217;48.762;11.428;2022-10-30T20:58:01;24.70;;;22.70;;
8359;SDS011;4217;48.762;11.428;2022-10-30T21:08:03;22.40;;;20.53;;
8359;SDS011;4217;48.762;11.428;2022-10-30T21:18:05;19.77;;;18.07;;
8359;SDS011;4217;48.762;11.428;2022-10-30T21:28:06;20.47;;;18.63;;
8359;SDS011;4217;48.762;11.428;2022-10-30T21:38:08;18.23;;;16.70;;
8359;SDS011;4217;48.762;11.428;2022-10-30T21:48:09;16.10;;;14.87;;
8359;SDS011;4217;48.762;11.428;2022-10-30T21:58:12;14.83;;;13.43;;
8359;SDS011;4217;48.762;11.428;2022-10-30T22:08:15;16.53;;;15.23;;
8359;SDS011;4217;48.762;11.428;2022-10-30T22:18:19;15.13;;;13.80;;
8359;SDS011;4217;48.762;11.428;2022-10-30T22:28:20;15.20;;;13.90;;
8359;SDS011;4217;48.762;11.428;2022-10-30T22:38:22;15.13;;;14.03;;
8359;SDS011;4217;48.762;11.428;2022-10-30T22:48:24;14.30;;;13.20;;
8359;SDS011;4217;48.762;11.428;2022-10-30T22:58:26;13.67;;;12.70;;
8359;SDS011;4217;48.762;11.428;2022-10-30T23:08:30;12.73;;;11.87;;
8359;SDS011;4217;48.762;11.428;2022-10-30T23:18:32;11.70;;;10.60;;
8359;SDS011;4217;48.762;11.428;2022-10-30T23:28:34;12.70;;;11.60;;
8359;SDS011;4217;48.762;11.428;2022-10-30T23:38:36;13.43;;;12.43;;
8359;SDS011;4217;48.762;11.428;2022-10-30T23:48:37;12.40;;;11.33;;
8359;SDS011;4217;48.762;11.428;2022-10-30T23:58:43;11.90;;;11.00;;
